createdAt,value
2023-02-06T00:01:20.345Z,1.10
2023-02-06T00:03:46.980Z,1.20
2023-02-06T00:06:14.394Z,1.10
2023-02-06T00:08:41.079Z,1.20
2023-02-06T00:11:11.169Z,1.20
2023-02-06T00:13:37.983Z,1.10
2023-02-06T00:16:05.920Z,1.10
2023-02-06T00:18:32.772Z,1.00
2023-02-06T00:20:59.410Z,0.90
2023-02-06T00:23:26.027Z,1.00
2023-02-06T00:25:52.689Z,0.90
2023-02-06T00:28:19.559Z,0.90
2023-02-06T00:30:47.603Z,0.90
2023-02-06T00:33:14.311Z,0.80
2023-02-06T00:35:41.113Z,0.90
2023-02-06T00:38:10.269Z,0.90
2023-02-06T00:40:37.159Z,0.90
2023-02-06T00:43:04.247Z,0.90
2023-02-06T00:45:30.884Z,1.00
2023-02-06T00:47:57.837Z,1.00
2023-02-06T00:50:24.380Z,1.00
2023-02-06T00:52:50.943Z,1.00
2023-02-06T00:55:17.872Z,1.00
2023-02-06T00:57:46.808Z,0.90
2023-02-06T01:00:14.230Z,0.80
2023-02-06T01:02:40.929Z,0.80
2023-02-06T01:05:08.813Z,0.80
2023-02-06T01:07:39.374Z,0.80
2023-02-06T01:10:07.695Z,0.80
2023-02-06T01:12:35.635Z,0.90
2023-02-06T01:15:05.712Z,0.90
2023-02-06T01:17:32.946Z,1.00
2023-02-06T01:20:00.563Z,1.00
2023-02-06T01:22:27.504Z,1.00
2023-02-06T01:24:54.222Z,1.10
2023-02-06T01:27:20.919Z,1.10
2023-02-06T01:29:47.444Z,1.10
2023-02-06T01:32:14.049Z,1.10
2023-02-06T01:34:40.724Z,1.00
2023-02-06T01:37:07.524Z,0.90
2023-02-06T01:39:34.373Z,0.80
2023-02-06T01:42:00.934Z,0.80
2023-02-06T01:44:27.701Z,0.80
2023-02-06T01:46:57.091Z,0.90
2023-02-06T01:49:44.205Z,0.90
2023-02-06T01:52:16.676Z,0.90
2023-02-06T01:54:46.966Z,1.00
2023-02-06T01:57:13.945Z,1.00
2023-02-06T01:59:44.604Z,1.00
2023-02-06T02:02:12.512Z,1.10
2023-02-06T02:04:39.185Z,1.10
2023-02-06T02:07:20.684Z,1.10
2023-02-06T02:09:47.409Z,1.10
2023-02-06T02:12:14.576Z,1.00
2023-02-06T02:14:43.979Z,1.00
2023-02-06T02:17:51.086Z,1.00
2023-02-06T02:20:29.892Z,1.00
2023-02-06T02:23:30.283Z,0.90
2023-02-06T02:26:11.958Z,1.00
2023-02-06T02:29:02.659Z,0.90
2023-02-06T02:31:58.168Z,0.90
2023-02-06T02:34:49.371Z,0.80
2023-02-06T02:37:35.993Z,0.80
2023-02-06T02:40:17.196Z,0.80
2023-02-06T02:43:01.230Z,0.80
2023-02-06T02:45:48.149Z,0.90
2023-02-06T02:48:37.814Z,0.90
2023-02-06T02:51:05.319Z,0.90
2023-02-06T02:53:32.341Z,0.90
2023-02-06T02:56:00.043Z,0.90
2023-02-06T02:58:34.115Z,0.80
2023-02-06T03:01:09.105Z,0.90
2023-02-06T03:03:39.834Z,0.80
2023-02-06T03:06:40.335Z,0.70
2023-02-06T03:09:22.601Z,0.70
2023-02-06T03:12:06.870Z,0.70
2023-02-06T03:14:42.607Z,0.80
2023-02-06T03:17:17.498Z,0.80
2023-02-06T03:19:48.682Z,0.70
2023-02-06T03:22:16.745Z,0.60
2023-02-06T03:24:43.497Z,0.60
2023-02-06T03:27:16.940Z,0.60
2023-02-06T03:29:46.760Z,0.60
2023-02-06T03:32:29.650Z,0.70
2023-02-06T03:35:18.643Z,0.60
2023-02-06T03:37:47.203Z,0.60
2023-02-06T03:40:14.656Z,0.60
2023-02-06T03:42:45.674Z,0.60
2023-02-06T03:45:21.922Z,0.60
2023-02-06T03:47:50.441Z,0.60
2023-02-06T03:50:17.962Z,0.60
2023-02-06T03:52:49.057Z,0.50
2023-02-06T03:55:22.240Z,0.50
2023-02-06T03:57:53.937Z,0.40
2023-02-06T04:00:21.338Z,0.40
2023-02-06T04:02:49.125Z,0.30
2023-02-06T04:05:17.462Z,0.30
2023-02-06T04:07:44.433Z,0.40
2023-02-06T04:10:11.095Z,0.30
2023-02-06T04:12:38.045Z,0.40
2023-02-06T04:15:05.284Z,0.40
2023-02-06T04:17:49.650Z,0.40
2023-02-06T04:20:16.624Z,0.40
2023-02-06T04:22:43.221Z,0.40
2023-02-06T04:25:10.033Z,0.50
2023-02-06T04:27:36.999Z,0.40
2023-02-06T04:30:05.266Z,0.30
2023-02-06T04:32:31.935Z,0.30
2023-02-06T04:34:58.464Z,0.20
2023-02-06T04:37:25.309Z,0.30
2023-02-06T04:39:51.948Z,0.30
2023-02-06T04:42:18.574Z,0.30
2023-02-06T04:44:45.349Z,0.30
2023-02-06T04:47:11.962Z,0.40
2023-02-06T04:49:38.540Z,0.40
2023-02-06T04:52:05.362Z,0.40
2023-02-06T04:54:32.818Z,0.50
2023-02-06T04:56:59.930Z,0.50
2023-02-06T04:59:26.713Z,0.50
2023-02-06T05:01:53.532Z,0.50
2023-02-06T05:04:20.974Z,0.50
2023-02-06T05:06:47.745Z,0.50
2023-02-06T05:09:14.365Z,0.50
2023-02-06T05:11:41.296Z,0.50
2023-02-06T05:14:08.123Z,0.50
2023-02-06T05:16:34.794Z,0.50
2023-02-06T05:19:01.429Z,0.50
2023-02-06T05:21:28.464Z,0.50
2023-02-06T05:23:55.083Z,0.50
2023-02-06T05:26:23.968Z,0.50
2023-02-06T05:28:50.694Z,0.50
2023-02-06T05:31:20.482Z,0.60
2023-02-06T05:33:52.595Z,0.60
2023-02-06T05:36:20.515Z,0.50
2023-02-06T05:38:47.891Z,0.60
2023-02-06T05:41:15.508Z,0.60
2023-02-06T05:43:42.116Z,0.70
2023-02-06T05:46:09.477Z,0.70
2023-02-06T05:48:36.135Z,0.70
2023-02-06T05:51:03.349Z,0.80
2023-02-06T05:53:30.476Z,0.80
2023-02-06T05:55:57.412Z,0.80
2023-02-06T05:58:24.162Z,0.70
2023-02-06T06:00:51.250Z,0.70
2023-02-06T06:03:17.870Z,0.80
2023-02-06T06:05:45.196Z,0.70
2023-02-06T06:08:11.924Z,0.70
2023-02-06T06:10:38.610Z,0.70
2023-02-06T06:13:05.254Z,0.70
2023-02-06T06:15:31.924Z,0.70
2023-02-06T06:17:58.566Z,0.70
2023-02-06T06:20:25.495Z,0.70
2023-02-06T06:22:52.089Z,0.70
2023-02-06T06:25:18.981Z,0.80
2023-02-06T06:27:45.908Z,0.80
2023-02-06T06:30:12.989Z,0.80
2023-02-06T06:32:40.090Z,0.80
2023-02-06T06:35:06.991Z,0.80
2023-02-06T06:37:33.643Z,0.80
2023-02-06T06:40:00.542Z,0.80
2023-02-06T06:42:27.223Z,0.80
2023-02-06T06:44:53.796Z,0.80
2023-02-06T06:47:20.342Z,0.80
2023-02-06T06:49:46.950Z,0.80
2023-02-06T06:52:24.531Z,0.80
2023-02-06T06:54:52.700Z,0.80
2023-02-06T06:57:20.950Z,0.80
2023-02-06T06:59:47.573Z,0.80
2023-02-06T07:02:14.476Z,0.80
2023-02-06T07:04:41.132Z,0.80
2023-02-06T07:07:08.255Z,0.80
2023-02-06T07:09:35.187Z,0.90
2023-02-06T07:12:01.832Z,0.90
2023-02-06T07:14:28.632Z,1.00
2023-02-06T07:16:56.438Z,1.00
2023-02-06T07:19:23.204Z,1.00
2023-02-06T07:21:50.039Z,1.10
2023-02-06T07:24:16.729Z,1.10
2023-02-06T07:26:43.402Z,1.00
2023-02-06T07:29:10.360Z,0.90
2023-02-06T07:31:37.360Z,0.80
2023-02-06T07:34:04.461Z,0.80
2023-02-06T07:36:31.273Z,0.90
2023-02-06T07:38:58.061Z,1.00
2023-02-06T07:41:24.876Z,1.10
2023-02-06T07:43:51.541Z,1.10
2023-02-06T07:46:18.173Z,1.20
2023-02-06T07:48:44.951Z,1.20
2023-02-06T07:51:11.571Z,1.30
2023-02-06T07:53:38.639Z,1.30
2023-02-06T07:56:16.749Z,1.30
2023-02-06T07:58:43.788Z,1.30
2023-02-06T08:01:10.916Z,1.40
2023-02-06T08:03:37.902Z,1.50
2023-02-06T08:06:13.010Z,1.50
2023-02-06T08:08:41.222Z,1.50
2023-02-06T08:11:09.520Z,1.60
2023-02-06T08:13:36.593Z,1.60
2023-02-06T08:16:05.866Z,1.50
2023-02-06T08:18:32.750Z,1.60
2023-02-06T08:21:08.034Z,1.60
2023-02-06T08:23:34.759Z,1.60
2023-02-06T08:26:07.703Z,1.60
2023-02-06T08:28:35.721Z,1.70
2023-02-06T08:31:10.072Z,1.70
2023-02-06T08:33:36.960Z,1.70
2023-02-06T08:36:04.564Z,1.70
2023-02-06T08:38:31.226Z,1.80
2023-02-06T08:40:58.715Z,1.80
2023-02-06T08:43:25.801Z,1.80
2023-02-06T08:45:53.520Z,1.90
2023-02-06T08:48:20.345Z,1.90
2023-02-06T08:50:49.310Z,2.00
2023-02-06T08:53:16.144Z,2.00
2023-02-06T08:55:42.735Z,2.00
2023-02-06T08:58:09.647Z,2.10
2023-02-06T09:00:37.451Z,2.10
2023-02-06T09:03:05.664Z,2.20
2023-02-06T09:05:32.294Z,2.20
2023-02-06T09:07:58.914Z,2.20
2023-02-06T09:10:27.962Z,2.30
2023-02-06T09:12:55.086Z,2.30
2023-02-06T09:15:22.042Z,2.30
2023-02-06T09:17:49.734Z,2.30
2023-02-06T09:20:16.749Z,2.40
2023-02-06T09:22:44.844Z,2.50
2023-02-06T09:25:11.973Z,2.60
2023-02-06T09:27:38.623Z,2.60
2023-02-06T09:30:05.912Z,2.60
2023-02-06T09:32:32.752Z,2.70
2023-02-06T09:34:59.564Z,2.60
2023-02-06T09:37:26.199Z,2.70
2023-02-06T09:39:52.808Z,2.60
2023-02-06T09:42:41.277Z,2.70
2023-02-06T09:45:18.732Z,2.70
2023-02-06T09:47:53.106Z,2.60
2023-02-06T09:50:24.152Z,2.60
2023-02-06T09:53:26.062Z,2.60
2023-02-06T09:56:00.128Z,2.60
2023-02-06T09:58:57.553Z,2.60
2023-02-06T10:01:34.611Z,2.70
2023-02-06T10:04:20.753Z,2.70
2023-02-06T10:07:07.598Z,2.80
2023-02-06T10:09:43.102Z,2.60
2023-02-06T10:12:16.397Z,2.50
2023-02-06T10:14:54.122Z,2.50
2023-02-06T10:17:29.172Z,2.50
2023-02-06T10:20:05.319Z,2.60
2023-02-06T10:22:57.030Z,2.70
2023-02-06T10:25:35.360Z,2.90
2023-02-06T10:28:29.016Z,3.00
2023-02-06T10:31:21.407Z,3.20
2023-02-06T10:34:20.601Z,3.10
2023-02-06T10:36:57.640Z,3.20
2023-02-06T10:39:39.272Z,3.20
2023-02-06T10:42:12.428Z,3.20
2023-02-06T10:44:53.459Z,3.20
2023-02-06T10:47:30.936Z,3.10
2023-02-06T10:50:07.819Z,3.20
2023-02-06T10:52:36.857Z,3.10
2023-02-06T10:55:15.690Z,3.20
2023-02-06T10:57:44.633Z,3.20
2023-02-06T11:00:23.762Z,3.40
2023-02-06T11:03:06.725Z,3.50
2023-02-06T11:05:35.575Z,3.50
2023-02-06T11:08:22.496Z,3.40
2023-02-06T11:10:49.349Z,3.40
2023-02-06T11:13:34.008Z,3.50
2023-02-06T11:16:12.723Z,3.60
2023-02-06T11:18:45.821Z,3.60
2023-02-06T11:21:15.597Z,3.60
2023-02-06T11:23:42.943Z,3.60
2023-02-06T11:26:18.681Z,3.60
2023-02-06T11:29:09.266Z,3.70
2023-02-06T11:31:50.209Z,3.70
2023-02-06T11:34:28.561Z,3.80
2023-02-06T11:37:01.387Z,3.80
2023-02-06T11:39:32.716Z,3.80
2023-02-06T11:42:25.832Z,3.60
2023-02-06T11:44:54.001Z,3.40
2023-02-06T11:47:32.794Z,3.40
2023-02-06T11:50:14.460Z,3.60
2023-02-06T11:52:46.586Z,3.60
2023-02-06T11:55:27.514Z,3.60
2023-02-06T11:58:15.888Z,3.70
2023-02-06T12:00:51.861Z,3.80
2023-02-06T12:03:50.449Z,3.90
2023-02-06T12:06:28.700Z,4.00
2023-02-06T12:08:58.470Z,4.20
2023-02-06T12:11:40.349Z,4.00
2023-02-06T12:14:19.375Z,3.80
2023-02-06T12:16:46.820Z,3.90
2023-02-06T12:19:24.804Z,4.00
2023-02-06T12:21:57.728Z,3.90
2023-02-06T12:24:37.640Z,3.90
2023-02-06T12:27:43.634Z,4.00
2023-02-06T12:30:36.532Z,4.00
2023-02-06T12:33:13.670Z,4.00
2023-02-06T12:35:44.624Z,4.10
2023-02-06T12:38:40.141Z,4.10
2023-02-06T12:41:16.386Z,4.00
2023-02-06T12:43:45.785Z,4.00
2023-02-06T12:46:13.487Z,4.10
2023-02-06T12:49:04.177Z,4.00
2023-02-06T12:51:52.841Z,4.10
2023-02-06T12:54:32.210Z,4.20
2023-02-06T12:57:12.127Z,4.30
2023-02-06T13:00:18.569Z,4.30
2023-02-06T13:03:02.768Z,4.30
2023-02-06T13:06:03.833Z,4.30
2023-02-06T13:08:58.334Z,4.40
2023-02-06T13:11:38.943Z,4.30
2023-02-06T13:14:27.951Z,4.40
2023-02-06T13:17:10.054Z,4.40
2023-02-06T13:19:36.610Z,4.60
2023-02-06T13:22:09.410Z,4.70
2023-02-06T13:24:37.611Z,4.80
2023-02-06T13:27:11.917Z,4.90
2023-02-06T13:29:46.948Z,4.90
2023-02-06T13:32:19.191Z,5.00
2023-02-06T13:34:48.737Z,4.80
2023-02-06T13:37:32.840Z,4.70
2023-02-06T13:40:35.207Z,4.70
2023-02-06T13:43:07.621Z,5.00
2023-02-06T13:45:44.068Z,5.10
2023-02-06T13:48:22.240Z,5.20
2023-02-06T13:51:22.961Z,5.30
2023-02-06T13:54:26.141Z,5.40
2023-02-06T13:57:26.706Z,5.40
2023-02-06T14:00:16.102Z,5.50
2023-02-06T14:02:48.404Z,5.60
2023-02-06T14:05:20.781Z,5.70
2023-02-06T14:08:00.999Z,5.90
2023-02-06T14:10:55.786Z,6.00
2023-02-06T14:13:37.205Z,6.00
2023-02-06T14:16:41.326Z,6.10
2023-02-06T14:19:29.591Z,6.20
2023-02-06T14:22:12.582Z,6.20
2023-02-06T14:25:08.680Z,6.30
2023-02-06T14:27:53.751Z,6.30
2023-02-06T14:30:38.274Z,6.40
2023-02-06T14:33:15.988Z,6.50
2023-02-06T14:36:25.053Z,6.50
2023-02-06T14:39:35.955Z,6.60
2023-02-06T14:42:15.483Z,6.70
2023-02-06T14:44:44.683Z,6.70
2023-02-06T14:47:42.056Z,6.70
2023-02-06T14:50:25.297Z,6.80
2023-02-06T14:52:56.506Z,6.80
2023-02-06T14:55:41.490Z,6.80
2023-02-06T14:58:34.497Z,6.80
2023-02-06T15:01:28.551Z,6.90
2023-02-06T15:04:19.086Z,7.00
2023-02-06T15:06:56.416Z,7.10
2023-02-06T15:09:26.230Z,7.10
2023-02-06T15:11:56.353Z,7.00
2023-02-06T15:14:26.433Z,7.10
2023-02-06T15:16:56.651Z,7.10
2023-02-06T15:19:33.150Z,7.10
2023-02-06T15:22:03.755Z,7.20
2023-02-06T15:24:59.438Z,7.30
2023-02-06T15:27:34.744Z,7.30
2023-02-06T15:30:09.604Z,7.50
2023-02-06T15:32:38.492Z,7.40
2023-02-06T15:35:22.617Z,7.50
2023-02-06T15:37:49.901Z,7.40
2023-02-06T15:40:34.090Z,7.40
2023-02-06T15:43:02.951Z,7.50
2023-02-06T15:45:34.312Z,7.60
2023-02-06T15:48:11.934Z,7.60
2023-02-06T15:50:38.791Z,7.70
2023-02-06T15:53:19.595Z,7.70
2023-02-06T15:55:56.351Z,7.70
2023-02-06T15:58:24.761Z,7.60
2023-02-06T16:00:55.569Z,7.60
2023-02-06T16:03:25.813Z,7.60
2023-02-06T16:05:53.275Z,7.50
2023-02-06T16:08:24.044Z,7.30
2023-02-06T16:10:53.436Z,7.20
2023-02-06T16:13:26.498Z,7.30
2023-02-06T16:16:11.532Z,7.30
2023-02-06T16:18:40.018Z,7.30
2023-02-06T16:21:18.661Z,7.30
2023-02-06T16:24:02.358Z,7.30
2023-02-06T16:26:31.423Z,7.10
2023-02-06T16:29:13.746Z,6.90
2023-02-06T16:31:43.290Z,6.90
2023-02-06T16:34:30.683Z,6.90
2023-02-06T16:36:57.450Z,6.80
2023-02-06T16:39:24.018Z,6.80
2023-02-06T16:41:52.730Z,6.80
2023-02-06T16:44:20.399Z,6.80
2023-02-06T16:46:47.202Z,6.80
2023-02-06T16:49:16.547Z,6.60
2023-02-06T16:51:44.221Z,6.50
2023-02-06T16:54:23.226Z,6.50
2023-02-06T16:56:49.926Z,6.50
2023-02-06T16:59:16.526Z,6.60
2023-02-06T17:01:43.190Z,6.50
2023-02-06T17:04:09.756Z,6.50
2023-02-06T17:06:36.662Z,6.50
2023-02-06T17:09:08.945Z,6.40
2023-02-06T17:11:39.570Z,6.30
2023-02-06T17:14:06.278Z,6.30
2023-02-06T17:16:34.019Z,6.30
2023-02-06T17:19:00.663Z,6.30
2023-02-06T17:21:29.701Z,6.20
2023-02-06T17:23:56.337Z,6.20
2023-02-06T17:26:23.727Z,6.20
2023-02-06T17:28:50.956Z,6.10
2023-02-06T17:31:18.541Z,5.80
2023-02-06T17:33:45.493Z,5.40
2023-02-06T17:36:21.865Z,5.00
2023-02-06T17:38:49.011Z,4.80
2023-02-06T17:41:15.552Z,5.10
2023-02-06T17:43:42.247Z,5.30
2023-02-06T17:46:10.529Z,5.50
2023-02-06T17:48:42.382Z,5.50
2023-02-06T17:51:09.479Z,5.50
2023-02-06T17:53:36.020Z,5.50
2023-02-06T17:56:07.338Z,5.50
2023-02-06T17:58:34.708Z,5.50
2023-02-06T18:01:01.363Z,5.40
2023-02-06T18:03:27.993Z,5.40
2023-02-06T18:05:59.569Z,5.30
2023-02-06T18:08:27.762Z,5.30
2023-02-06T18:10:54.994Z,5.30
2023-02-06T18:13:23.907Z,5.20
2023-02-06T18:15:55.970Z,5.20
2023-02-06T18:18:24.576Z,5.20
2023-02-06T18:20:52.020Z,5.10
2023-02-06T18:23:21.818Z,5.10
2023-02-06T18:25:48.972Z,5.10
2023-02-06T18:28:17.260Z,5.00
2023-02-06T18:30:44.692Z,5.00
2023-02-06T18:33:12.781Z,4.90
2023-02-06T18:35:45.452Z,4.90
2023-02-06T18:38:13.452Z,4.80
2023-02-06T18:40:41.335Z,4.60
2023-02-06T18:43:08.177Z,4.70
2023-02-06T18:45:37.681Z,4.60
2023-02-06T18:48:06.485Z,4.70
2023-02-06T18:50:33.930Z,4.70
2023-02-06T18:53:00.563Z,4.70
2023-02-06T18:55:27.362Z,4.60
2023-02-06T18:57:54.175Z,4.60
2023-02-06T19:00:22.572Z,4.50
2023-02-06T19:02:49.780Z,4.10
2023-02-06T19:05:16.698Z,3.60
2023-02-06T19:07:43.348Z,3.20
2023-02-06T19:10:13.106Z,3.40
2023-02-06T19:12:40.500Z,3.60
2023-02-06T19:15:07.642Z,3.80
2023-02-06T19:17:34.510Z,3.80
2023-02-06T19:20:01.481Z,3.60
2023-02-06T19:22:28.177Z,3.40
2023-02-06T19:24:54.831Z,3.50
2023-02-06T19:27:21.959Z,3.60
2023-02-06T19:29:49.585Z,3.70
2023-02-06T19:32:16.157Z,3.70
2023-02-06T19:34:45.029Z,3.40
2023-02-06T19:37:13.060Z,3.10
2023-02-06T19:39:40.429Z,3.30
2023-02-06T19:42:09.689Z,3.30
2023-02-06T19:44:36.756Z,3.50
2023-02-06T19:47:03.948Z,3.50
2023-02-06T19:49:30.878Z,3.50
2023-02-06T19:51:57.506Z,3.50
2023-02-06T19:54:24.109Z,3.50
2023-02-06T19:56:50.725Z,3.60
2023-02-06T19:59:23.530Z,3.60
2023-02-06T20:01:53.338Z,3.60
2023-02-06T20:04:22.662Z,3.50
2023-02-06T20:06:51.099Z,3.50
2023-02-06T20:09:20.092Z,3.50
2023-02-06T20:11:48.203Z,3.30
2023-02-06T20:14:15.206Z,3.10
2023-02-06T20:16:42.932Z,3.20
2023-02-06T20:19:16.485Z,3.30
2023-02-06T20:21:46.352Z,3.10
2023-02-06T20:24:18.311Z,3.10
2023-02-06T20:26:45.447Z,3.20
2023-02-06T20:29:29.017Z,3.10
2023-02-06T20:31:57.026Z,3.10
2023-02-06T20:34:24.354Z,3.20
2023-02-06T20:36:51.670Z,3.10
2023-02-06T20:39:19.050Z,3.20
2023-02-06T20:41:46.039Z,3.20
2023-02-06T20:44:13.830Z,3.20
2023-02-06T20:46:41.153Z,3.20
2023-02-06T20:49:20.084Z,3.10
2023-02-06T20:51:48.982Z,3.10
2023-02-06T20:54:16.695Z,3.10
2023-02-06T20:56:43.291Z,3.00
2023-02-06T20:59:13.764Z,3.00
2023-02-06T21:01:41.060Z,3.00
2023-02-06T21:04:09.466Z,2.90
2023-02-06T21:06:37.764Z,3.00
2023-02-06T21:09:05.921Z,3.00
2023-02-06T21:11:40.881Z,3.00
2023-02-06T21:14:07.988Z,2.90
2023-02-06T21:16:35.752Z,2.90
2023-02-06T21:19:03.319Z,3.00
2023-02-06T21:21:30.126Z,3.00
2023-02-06T21:23:56.784Z,2.90
2023-02-06T21:26:24.898Z,2.90
2023-02-06T21:28:52.341Z,2.90
2023-02-06T21:31:22.103Z,2.90
2023-02-06T21:33:49.815Z,2.90
2023-02-06T21:36:16.387Z,2.90
2023-02-06T21:38:43.214Z,2.90
2023-02-06T21:41:15.521Z,2.90
2023-02-06T21:43:42.578Z,2.90
2023-02-06T21:46:10.741Z,2.80
2023-02-06T21:48:37.884Z,2.80
2023-02-06T21:51:12.773Z,2.80
2023-02-06T21:53:40.248Z,2.70
2023-02-06T21:56:09.081Z,2.70
2023-02-06T21:58:36.445Z,2.70
2023-02-06T22:01:08.705Z,2.60
2023-02-06T22:03:37.042Z,2.60
2023-02-06T22:06:08.506Z,2.60
2023-02-06T22:08:36.561Z,2.60
2023-02-06T22:11:11.514Z,2.60
2023-02-06T22:13:38.136Z,2.60
2023-02-06T22:16:05.055Z,2.60
2023-02-06T22:18:31.675Z,2.50
2023-02-06T22:21:16.126Z,2.50
2023-02-06T22:23:43.995Z,2.40
2023-02-06T22:26:12.686Z,2.40
2023-02-06T22:28:39.945Z,2.30
2023-02-06T22:31:09.058Z,2.40
2023-02-06T22:33:36.211Z,2.40
2023-02-06T22:36:07.694Z,2.30
2023-02-06T22:38:34.735Z,2.30
2023-02-06T22:41:04.582Z,2.30
2023-02-06T22:43:33.509Z,2.20
2023-02-06T22:46:00.216Z,2.20
2023-02-06T22:48:27.257Z,2.20
2023-02-06T22:50:53.919Z,2.10
2023-02-06T22:53:31.664Z,2.10
2023-02-06T22:56:18.303Z,2.00
2023-02-06T22:58:45.498Z,2.00
2023-02-06T23:01:12.515Z,2.00
2023-02-06T23:03:39.419Z,1.90
2023-02-06T23:06:08.529Z,1.90
2023-02-06T23:08:36.825Z,1.90
2023-02-06T23:11:07.784Z,1.80
2023-02-06T23:13:35.112Z,1.80
2023-02-06T23:16:02.692Z,1.80
2023-02-06T23:18:29.548Z,1.80
2023-02-06T23:20:57.935Z,1.80
2023-02-06T23:23:24.897Z,1.80
2023-02-06T23:25:52.312Z,1.70
2023-02-06T23:28:20.450Z,1.70
2023-02-06T23:30:47.401Z,1.70
2023-02-06T23:33:15.210Z,1.70
2023-02-06T23:35:41.831Z,1.70
2023-02-06T23:38:08.876Z,1.70
2023-02-06T23:40:36.088Z,1.70
2023-02-06T23:43:03.674Z,1.60
2023-02-06T23:45:30.641Z,1.60
2023-02-06T23:47:57.791Z,1.60
2023-02-06T23:50:25.544Z,1.60
2023-02-06T23:52:52.405Z,1.60
2023-02-06T23:55:19.461Z,1.60
2023-02-06T23:57:46.168Z,1.60
